Time;durP1;ratioP1;P1;durP2;ratioP2;P2;SDS_P1;SDS_P2;PMS_P1;PMS_P2;Temp;Humidity;BMP_temperature;BMP_pressure;BME280_temperature;BME280_humidity;BME280_pressure;Samples;Min_cycle;Max_cycle;Signal;HPM_P1;HPM_P2
2022/12/22 03:26:00;;;;;;;6.70;6.60;;;21.10;56.10;;;;;;5011858;28;20573;-53
2022/12/22 03:28:28;;;;;;;6.77;6.67;;;21.00;56.10;;;;;;5012058;28;20449;-53
2022/12/22 03:30:56;;;;;;;6.53;6.43;;;21.00;56.10;;;;;;5011778;28;20447;-52
2022/12/22 03:33:25;;;;;;;6.30;6.20;;;21.00;56.10;;;;;;5011985;28;20490;-55
2022/12/22 03:35:52;;;;;;;6.60;6.50;;;21.00;56.10;;;;;;5011724;28;20453;-52
2022/12/22 03:38:19;;;;;;;6.03;5.93;;;21.00;56.10;;;;;;5014212;28;20448;-54
2022/12/22 03:40:47;;;;;;;6.50;6.30;;;21.00;56.20;;;;;;5018195;28;20454;-52
2022/12/22 03:51:32;;;;;;;5.80;5.70;;;21.00;56.20;;;;;;5017409;28;20568;-53
2022/12/22 03:53:59;;;;;;;5.87;5.77;;;20.90;56.20;;;;;;5018180;28;20485;-53
2022/12/22 03:56:26;;;;;;;6.27;6.17;;;20.90;56.30;;;;;;5018047;28;20456;-55
2022/12/22 03:58:52;;;;;;;6.50;6.40;;;20.90;56.20;;;;;;5017955;28;20536;-52
2022/12/22 04:01:19;;;;;;;6.10;6.00;;;20.90;56.20;;;;;;5018089;28;20450;-57
2022/12/22 04:03:46;;;;;;;6.20;6.10;;;20.90;56.30;;;;;;5017861;28;20816;-54
2022/12/22 04:06:14;;;;;;;6.20;6.10;;;20.90;56.30;;;;;;5018128;28;20464;-52
2022/12/22 04:08:41;;;;;;;5.80;5.70;;;20.90;56.40;;;;;;5018202;28;20473;-53
2022/12/22 04:13:54;;;;;;;6.43;6.33;;;20.90;56.40;;;;;;5018065;28;20586;-52
2022/12/22 04:16:20;;;;;;;6.37;6.27;;;20.90;56.40;;;;;;5018066;28;20528;-53
2022/12/22 04:18:47;;;;;;;6.40;6.30;;;20.90;56.40;;;;;;5017816;28;20450;-52
2022/12/22 04:21:15;;;;;;;6.50;6.40;;;20.90;56.40;;;;;;5017794;28;20442;-52
2022/12/22 04:23:42;;;;;;;6.03;5.93;;;20.90;56.40;;;;;;5017867;28;20448;-52
2022/12/22 04:26:09;;;;;;;6.50;6.40;;;20.90;56.40;;;;;;5018011;28;21031;-52
2022/12/22 04:28:36;;;;;;;6.40;6.30;;;20.80;56.40;;;;;;5017869;28;20446;-55
2022/12/22 04:31:03;;;;;;;6.20;6.10;;;20.90;56.50;;;;;;5017853;28;20450;-52
2022/12/22 04:33:30;;;;;;;6.43;6.33;;;20.90;56.50;;;;;;5017645;28;20446;-53
2022/12/22 04:35:56;;;;;;;6.20;6.10;;;20.90;56.40;;;;;;5017992;28;20898;-56
2022/12/22 04:38:25;;;;;;;6.50;6.40;;;20.90;56.90;;;;;;5018212;28;20445;-53
2022/12/22 04:40:51;;;;;;;6.30;6.20;;;20.90;56.50;;;;;;5017926;28;20537;-52
2022/12/22 04:43:18;;;;;;;6.40;6.30;;;20.90;56.80;;;;;;5017548;28;20548;-54
2022/12/22 04:45:45;;;;;;;6.60;6.50;;;20.90;56.80;;;;;;5018041;28;20529;-53
2022/12/22 04:48:12;;;;;;;6.60;6.50;;;20.80;56.70;;;;;;5018062;28;20979;-53
2022/12/22 04:50:39;;;;;;;6.60;6.50;;;20.80;56.70;;;;;;5015169;28;20533;-53
2022/12/22 04:53:06;;;;;;;6.70;6.60;;;20.80;56.70;;;;;;5014685;28;20848;-59
2022/12/22 04:55:34;;;;;;;7.33;7.13;;;20.90;57.40;;;;;;5014417;28;20485;-58
2022/12/22 04:58:02;;;;;;;6.20;6.10;;;20.80;57.00;;;;;;5014711;28;20476;-52
2022/12/22 05:00:29;;;;;;;6.40;6.30;;;20.80;57.20;;;;;;5014352;28;20861;-55
2022/12/22 05:02:56;;;;;;;6.87;6.77;;;20.80;57.20;;;;;;5014377;28;20554;-55
2022/12/22 05:05:23;;;;;;;6.77;6.57;;;20.80;57.40;;;;;;5014190;28;20508;-52
2022/12/22 05:07:50;;;;;;;6.90;6.70;;;20.80;57.50;;;;;;5014346;28;20451;-52
2022/12/22 05:10:17;;;;;;;6.93;6.83;;;20.80;57.50;;;;;;5014315;28;20872;-54
2022/12/22 05:12:54;;;;;;;6.73;6.63;;;20.80;57.50;;;;;;5014037;28;20466;-53
2022/12/22 05:15:22;;;;;;;7.30;6.80;;;20.80;57.60;;;;;;5014512;28;20492;-55
2022/12/22 05:17:49;;;;;;;6.33;6.23;;;20.80;57.70;;;;;;5014331;28;20446;-55
2022/12/22 05:20:16;;;;;;;6.60;6.40;;;20.80;57.70;;;;;;5013850;28;20456;-54
2022/12/22 05:22:43;;;;;;;6.70;6.60;;;20.80;57.60;;;;;;5013909;28;20535;-53
2022/12/22 05:25:10;;;;;;;7.13;6.70;;;20.80;57.40;;;;;;5014250;28;20811;-54
2022/12/22 05:27:37;;;;;;;6.80;6.60;;;20.80;57.20;;;;;;5014061;28;20446;-55
2022/12/22 05:30:07;;;;;;;6.70;6.60;;;20.80;57.00;;;;;;5013858;28;20887;-54
2022/12/22 05:32:34;;;;;;;6.87;6.57;;;20.80;57.00;;;;;;5013721;28;20834;-56
2022/12/22 05:35:02;;;;;;;7.00;6.90;;;20.90;56.90;;;;;;5013833;28;20482;-56
2022/12/22 05:37:29;;;;;;;7.57;7.20;;;20.90;56.90;;;;;;5013897;28;20450;-53
2022/12/22 05:39:56;;;;;;;6.83;6.73;;;20.90;56.90;;;;;;5013515;28;20489;-57
2022/12/22 05:42:35;;;;;;;7.50;7.30;;;20.90;56.70;;;;;;5013561;28;20912;-54
2022/12/22 05:45:06;;;;;;;7.40;7.30;;;20.90;56.70;;;;;;5013755;28;20457;-57
2022/12/22 05:47:33;;;;;;;8.13;7.73;;;20.90;56.70;;;;;;5013706;28;20504;-55
2022/12/22 05:50:00;;;;;;;7.43;7.33;;;20.90;56.70;;;;;;5013366;28;20446;-56
2022/12/22 05:52:27;;;;;;;7.10;6.93;;;20.80;56.70;;;;;;5013261;28;20486;-54
2022/12/22 05:54:54;;;;;;;7.33;7.23;;;20.80;56.70;;;;;;5013372;28;20539;-52
2022/12/22 05:57:21;;;;;;;7.70;7.60;;;20.80;56.70;;;;;;5013529;28;20488;-52
2022/12/22 05:59:48;;;;;;;7.77;7.60;;;20.80;56.70;;;;;;5013260;28;20789;-55
2022/12/22 06:02:16;;;;;;;7.37;7.27;;;20.80;56.70;;;;;;5012545;28;20553;-57
2022/12/22 06:04:43;;;;;;;7.83;7.73;;;20.80;56.70;;;;;;5013372;28;20553;-52
2022/12/22 06:07:10;;;;;;;8.67;8.47;;;20.80;56.70;;;;;;5013147;28;20941;-55
2022/12/22 06:09:37;;;;;;;8.03;7.73;;;20.80;56.70;;;;;;5012851;28;20442;-56
2022/12/22 06:12:04;;;;;;;8.30;8.10;;;20.80;56.80;;;;;;5013205;28;20465;-55
2022/12/22 06:14:31;;;;;;;7.40;7.30;;;20.80;56.70;;;;;;5013181;28;20532;-56
2022/12/22 06:16:58;;;;;;;8.20;8.00;;;20.80;56.90;;;;;;5013261;28;20522;-54
2022/12/22 06:19:26;;;;;;;7.40;7.20;;;20.80;57.00;;;;;;5012820;28;20477;-56
2022/12/22 06:21:53;;;;;;;6.90;6.80;;;20.80;57.20;;;;;;5012956;28;20553;-54
2022/12/22 06:24:20;;;;;;;6.70;6.50;;;20.80;57.20;;;;;;5012810;28;20954;-56
2022/12/22 06:26:46;;;;;;;7.77;7.57;;;20.70;57.70;;;;;;5013038;28;20544;-53
2022/12/22 06:29:13;;;;;;;8.00;7.70;;;20.70;57.20;;;;;;5012719;28;20529;-55
2022/12/22 06:31:40;;;;;;;6.67;6.57;;;20.70;57.40;;;;;;5012950;28;21017;-55
2022/12/22 06:34:09;;;;;;;8.10;7.90;;;20.70;57.90;;;;;;5012791;28;20537;-58
2022/12/22 06:36:38;;;;;;;8.10;7.80;;;20.70;57.30;;;;;;5012438;28;20446;-57
2022/12/22 06:39:05;;;;;;;7.53;7.37;;;20.70;57.50;;;;;;5012529;28;20450;-53
2022/12/22 06:44:15;;;;;;;7.50;7.40;;;20.70;57.60;;;;;;5012762;28;20422;-55
2022/12/22 06:46:42;;;;;;;7.50;7.40;;;20.70;57.60;;;;;;5012223;28;20885;-55
2022/12/22 06:49:09;;;;;;;7.47;7.37;;;20.70;57.70;;;;;;5012285;28;20541;-52
2022/12/22 06:51:37;;;;;;;8.43;8.27;;;20.70;57.80;;;;;;5012143;28;20478;-52
2022/12/22 06:54:04;;;;;;;7.70;7.50;;;20.70;57.80;;;;;;5012345;28;20533;-53
2022/12/22 06:56:31;;;;;;;8.73;8.53;;;20.60;57.80;;;;;;5012342;28;20442;-52
2022/12/22 06:58:58;;;;;;;8.00;7.80;;;20.60;57.70;;;;;;5012152;28;20532;-52
2022/12/22 07:01:25;;;;;;;7.87;7.67;;;20.60;57.80;;;;;;5012193;28;20462;-54
2022/12/22 07:03:52;;;;;;;7.70;7.60;;;20.60;57.70;;;;;;5012286;28;20707;-54
2022/12/22 07:06:18;;;;;;;8.17;7.97;;;20.60;57.60;;;;;;5011859;28;20808;-54
2022/12/22 07:08:47;;;;;;;7.47;7.37;;;20.70;57.60;;;;;;5012307;28;20448;-52
2022/12/22 07:11:15;;;;;;;7.83;7.73;;;20.60;57.70;;;;;;5012096;28;20449;-55
2022/12/22 07:13:42;;;;;;;8.30;8.10;;;20.70;57.90;;;;;;5011290;28;20446;-53
2022/12/22 07:16:10;;;;;;;7.90;7.80;;;20.60;57.90;;;;;;5011751;28;20488;-55
2022/12/22 07:18:40;;;;;;;8.10;7.90;;;20.60;57.60;;;;;;5012006;28;20471;-52
2022/12/22 07:21:09;;;;;;;8.53;7.80;;;20.70;57.50;;;;;;5011996;28;20450;-52
2022/12/22 07:23:37;;;;;;;7.90;7.70;;;20.70;57.60;;;;;;5011599;28;20446;-52
2022/12/22 07:26:07;;;;;;;7.50;7.40;;;20.70;57.40;;;;;;5011770;28;20808;-53
2022/12/22 07:28:35;;;;;;;7.43;7.30;;;20.70;57.50;;;;;;5011898;28;20446;-52
2022/12/22 07:31:02;;;;;;;7.10;7.00;;;20.70;57.60;;;;;;5011703;28;20489;-52
2022/12/22 07:33:29;;;;;;;7.00;6.90;;;20.70;57.60;;;;;;5011508;28;20447;-53
2022/12/22 07:36:05;;;;;;;7.43;7.23;;;20.70;57.40;;;;;;5011742;28;20576;-53
2022/12/22 07:38:33;;;;;;;7.57;7.47;;;20.70;57.50;;;;;;5011831;28;20537;-52
2022/12/22 07:41:00;;;;;;;6.90;6.80;;;20.70;57.40;;;;;;5011564;28;20512;-52
2022/12/22 07:43:28;;;;;;;7.00;6.90;;;20.70;57.50;;;;;;5011653;28;20472;-53
2022/12/22 07:45:55;;;;;;;7.90;7.70;;;20.70;57.50;;;;;;5010680;28;20976;-53
2022/12/22 07:51:07;;;;;;;7.50;7.40;;;20.70;57.50;;;;;;5011700;28;20920;-56
2022/12/22 07:53:34;;;;;;;7.97;7.77;;;20.70;57.30;;;;;;5012654;28;20454;-54
2022/12/22 07:56:05;;;;;;;7.50;7.40;;;20.70;57.30;;;;;;5011897;28;20572;-52
2022/12/22 07:58:33;;;;;;;8.00;7.80;;;20.70;57.20;;;;;;5011739;28;20446;-54
2022/12/22 08:01:01;;;;;;;7.70;7.50;;;20.70;57.30;;;;;;5011423;28;20449;-54
2022/12/22 08:03:28;;;;;;;8.13;7.93;;;20.70;57.40;;;;;;5011824;28;20446;-52
2022/12/22 08:05:55;;;;;;;7.63;7.43;;;20.70;57.40;;;;;;5011363;28;20928;-57
2022/12/22 08:08:22;;;;;;;7.07;6.97;;;20.70;58.00;;;;;;4992452;28;20529;-56
2022/12/22 08:10:49;;;;;;;7.10;7.00;;;20.70;57.40;;;;;;4991962;28;20441;-53
2022/12/22 08:13:16;;;;;;;7.13;7.03;;;20.70;57.40;;;;;;4991979;28;20467;-56
2022/12/22 08:15:44;;;;;;;7.53;7.43;;;20.70;57.30;;;;;;4994810;28;20484;-55
2022/12/22 08:18:12;;;;;;;7.83;7.63;;;20.70;57.30;;;;;;5011765;28;20529;-52
2022/12/22 08:20:38;;;;;;;7.90;7.70;;;20.70;57.20;;;;;;5011368;28;20452;-53
2022/12/22 08:23:05;;;;;;;7.60;7.50;;;20.70;57.10;;;;;;5011634;28;20833;-52
2022/12/22 08:25:34;;;;;;;7.50;7.37;;;20.70;57.20;;;;;;5013978;28;20438;-55
2022/12/22 08:28:01;;;;;;;7.70;7.60;;;20.70;57.20;;;;;;5015374;28;21009;-54
2022/12/22 08:30:28;;;;;;;8.30;8.10;;;20.70;57.00;;;;;;5010542;28;20449;-56
2022/12/22 08:32:56;;;;;;;8.10;7.90;;;20.70;57.10;;;;;;5015042;28;20989;-55
2022/12/22 08:35:23;;;;;;;8.00;7.80;;;20.70;57.00;;;;;;5014891;28;20482;-51
2022/12/22 08:37:51;;;;;;;8.30;8.10;;;20.70;57.00;;;;;;5015228;28;20922;-56
2022/12/22 08:40:23;;;;;;;8.00;7.80;;;20.70;57.00;;;;;;5014748;28;20438;-52
2022/12/22 08:42:52;;;;;;;7.80;7.60;;;20.60;57.10;;;;;;5014841;28;20549;-52
2022/12/22 08:45:19;;;;;;;8.13;7.93;;;20.60;57.00;;;;;;5014948;28;20853;-56
2022/12/22 08:47:46;;;;;;;7.43;7.27;;;20.60;57.00;;;;;;5014180;28;20859;-54
2022/12/22 08:50:14;;;;;;;7.83;7.63;;;20.60;57.00;;;;;;5014826;28;20446;-51
2022/12/22 08:52:41;;;;;;;8.00;7.80;;;20.60;57.00;;;;;;5014504;28;20513;-55
2022/12/22 08:55:08;;;;;;;7.00;6.90;;;20.60;57.10;;;;;;5014520;28;20485;-52
2022/12/22 08:57:36;;;;;;;7.70;7.50;;;20.60;57.10;;;;;;5014725;28;20442;-54
2022/12/22 09:00:05;;;;;;;7.80;7.60;;;20.60;57.40;;;;;;5013367;28;20828;-53
2022/12/22 09:02:32;;;;;;;7.50;7.30;;;20.60;57.50;;;;;;5014152;28;20470;-52
2022/12/22 09:04:59;;;;;;;7.90;7.70;;;20.60;57.70;;;;;;5014547;28;20458;-52
2022/12/22 09:07:27;;;;;;;7.70;7.60;;;20.60;57.80;;;;;;5014664;28;20450;-54
2022/12/22 09:09:56;;;;;;;8.50;8.30;;;20.60;57.90;;;;;;5013880;28;20460;-56
2022/12/22 09:12:23;;;;;;;7.73;7.63;;;20.50;57.90;;;;;;5014438;28;20458;-52
2022/12/22 09:14:50;;;;;;;7.17;7.07;;;20.50;58.00;;;;;;5014148;28;20509;-58
2022/12/22 09:17:17;;;;;;;7.77;7.57;;;20.50;58.00;;;;;;5014141;28;20534;-54
2022/12/22 09:19:43;;;;;;;7.63;7.43;;;20.50;58.00;;;;;;5013947;28;20477;-58
2022/12/22 09:22:11;;;;;;;7.30;7.20;;;20.50;58.10;;;;;;5014153;28;20474;-53
2022/12/22 09:24:39;;;;;;;8.07;7.77;;;20.50;58.10;;;;;;5014073;28;20446;-53
2022/12/22 09:27:07;;;;;;;8.50;8.30;;;20.50;58.20;;;;;;5013892;28;20525;-52
2022/12/22 09:29:35;;;;;;;7.77;7.67;;;20.50;58.10;;;;;;5013735;28;20476;-52
2022/12/22 09:32:02;;;;;;;8.17;7.97;;;20.50;58.20;;;;;;5014055;28;20470;-53
2022/12/22 09:34:28;;;;;;;7.13;7.03;;;20.50;58.30;;;;;;5013909;28;20532;-54
2022/12/22 09:36:55;;;;;;;8.50;8.30;;;20.50;58.30;;;;;;5012802;28;20478;-55
2022/12/22 09:39:22;;;;;;;8.60;8.40;;;20.50;58.20;;;;;;5013772;28;20448;-55
2022/12/22 09:41:53;;;;;;;9.23;9.03;;;20.50;58.30;;;;;;5013840;28;20462;-56
2022/12/22 09:44:24;;;;;;;8.70;8.50;;;20.50;58.30;;;;;;5014199;28;20872;-52
2022/12/22 09:46:53;;;;;;;9.10;8.90;;;20.50;58.40;;;;;;5013865;28;20449;-51
2022/12/22 09:49:21;;;;;;;9.10;8.60;;;20.50;58.40;;;;;;5013858;28;20748;-53
2022/12/22 09:51:51;;;;;;;8.90;8.70;;;20.40;58.40;;;;;;5013640;28;20856;-57
2022/12/22 09:54:19;;;;;;;9.10;8.80;;;20.40;58.30;;;;;;5013592;28;20535;-52
2022/12/22 09:56:45;;;;;;;8.53;8.33;;;20.40;58.30;;;;;;5013786;28;20482;-56
2022/12/22 09:59:15;;;;;;;8.80;8.57;;;20.40;58.30;;;;;;5013559;28;21156;-52
2022/12/22 10:02:10;;;;;;;8.50;8.30;;;20.50;58.40;;;;;;5013235;28;20553;-55
2022/12/22 10:04:51;;;;;;;9.23;9.00;;;20.40;58.40;;;;;;5013526;28;20481;-55
2022/12/22 10:07:25;;;;;;;8.90;8.60;;;20.50;58.40;;;;;;5013569;28;20937;-54
2022/12/22 10:09:52;;;;;;;8.07;7.83;;;20.40;58.10;;;;;;5012890;28;20446;-54
2022/12/22 10:12:22;;;;;;;8.40;8.20;;;20.50;58.10;;;;;;5013235;28;20458;-55
2022/12/22 10:14:52;;;;;;;10.17;9.67;;;20.50;58.00;;;;;;5013544;28;20489;-56
2022/12/22 10:17:22;;;;;;;8.03;7.83;;;20.50;58.10;;;;;;5013052;28;20484;-56
2022/12/22 10:19:50;;;;;;;8.67;8.47;;;20.50;58.20;;;;;;5012857;28;20937;-55
2022/12/22 10:22:27;;;;;;;8.67;8.47;;;20.50;58.00;;;;;;5012934;28;20549;-57
2022/12/22 10:24:54;;;;;;;8.20;8.00;;;20.50;58.10;;;;;;5013003;28;20438;-55
2022/12/22 10:27:23;;;;;;;8.17;7.97;;;20.50;58.20;;;;;;5012937;28;20446;-54
2022/12/22 10:29:52;;;;;;;8.10;7.90;;;20.50;58.20;;;;;;5012599;28;20537;-52
2022/12/22 10:32:21;;;;;;;8.43;8.13;;;20.50;58.10;;;;;;5012632;28;20544;-52
2022/12/22 10:35:03;;;;;;;7.70;7.47;;;20.50;58.20;;;;;;5012961;28;20458;-53
2022/12/22 10:37:35;;;;;;;8.37;8.17;;;20.50;58.10;;;;;;5012737;28;20573;-56
2022/12/22 10:40:14;;;;;;;8.30;8.00;;;20.50;58.10;;;;;;5012577;28;20940;-52
2022/12/22 10:42:46;;;;;;;8.90;8.70;;;20.50;58.00;;;;;;5012404;28;20470;-52
2022/12/22 10:45:19;;;;;;;8.80;8.60;;;20.50;58.10;;;;;;5012681;28;20933;-53
2022/12/22 10:47:49;;;;;;;8.90;8.70;;;20.50;58.00;;;;;;5013013;28;20446;-52
2022/12/22 10:50:17;;;;;;;9.10;8.87;;;20.50;58.20;;;;;;5012608;28;20456;-57
2022/12/22 10:52:52;;;;;;;8.70;8.50;;;20.50;58.10;;;;;;5012527;28;20508;-53
2022/12/22 10:55:20;;;;;;;9.47;9.23;;;20.50;58.10;;;;;;5012454;28;20473;-52
2022/12/22 10:57:47;;;;;;;9.53;9.23;;;20.50;58.20;;;;;;5012397;28;20482;-54
2022/12/22 11:00:27;;;;;;;9.90;9.70;;;20.50;58.00;;;;;;5012388;28;20452;-55
2022/12/22 11:02:55;;;;;;;9.17;8.97;;;20.50;58.10;;;;;;5012349;28;20481;-57
2022/12/22 11:05:22;;;;;;;9.20;8.90;;;20.50;58.00;;;;;;5012593;28;21082;-53
2022/12/22 11:07:50;;;;;;;9.17;8.90;;;20.50;58.10;;;;;;5012084;28;20541;-52
2022/12/22 11:10:20;;;;;;;8.80;8.60;;;20.50;58.10;;;;;;5012003;28;20449;-57
2022/12/22 11:13:02;;;;;;;8.73;8.53;;;20.50;58.10;;;;;;5012200;28;20498;-56
2022/12/22 11:15:39;;;;;;;9.20;9.00;;;20.50;58.10;;;;;;5011961;28;20450;-59
2022/12/22 11:18:17;;;;;;;8.80;8.57;;;20.50;58.10;;;;;;5012064;28;20453;-54
2022/12/22 11:20:58;;;;;;;9.80;9.50;;;20.50;58.10;;;;;;5011049;28;20456;-55
2022/12/22 11:23:35;;;;;;;9.33;9.10;;;20.50;58.20;;;;;;5011773;28;20484;-54
2022/12/22 11:26:11;;;;;;;9.03;8.83;;;20.50;58.20;;;;;;5011901;28;20441;-55
2022/12/22 11:28:51;;;;;;;9.67;9.37;;;20.40;58.20;;;;;;5011969;28;20452;-55
2022/12/22 11:31:34;;;;;;;9.40;9.20;;;20.40;58.20;;;;;;5011326;28;20516;-55
2022/12/22 11:34:16;;;;;;;10.10;9.80;;;20.40;58.20;;;;;;5011785;28;20450;-56
2022/12/22 11:36:58;;;;;;;9.87;9.57;;;20.40;58.10;;;;;;5011728;28;20481;-58
2022/12/22 11:39:45;;;;;;;10.03;9.73;;;20.50;59.60;;;;;;5011689;28;20530;-60
2022/12/22 11:42:37;;;;;;;9.50;9.10;;;20.50;60.30;;;;;;5011370;28;20466;-59
2022/12/22 11:45:23;;;;;;;9.70;9.30;;;20.60;61.60;;;;;;5011391;28;20453;-57
2022/12/22 11:48:02;;;;;;;9.27;9.00;;;20.70;61.30;;;;;;5010525;28;20462;-53
2022/12/22 11:50:39;;;;;;;9.97;9.67;;;20.80;61.50;;;;;;5012008;28;20533;-56
2022/12/22 11:53:33;;;;;;;11.23;10.83;;;20.80;62.00;;;;;;5011966;28;20565;-56
2022/12/22 11:56:15;;;;;;;9.53;9.23;;;20.90;62.20;;;;;;5009121;28;20482;-58
2022/12/22 11:59:03;;;;;;;9.60;9.30;;;21.00;63.10;;;;;;5011837;28;20999;-56
2022/12/22 12:01:46;;;;;;;8.97;8.67;;;21.00;63.80;;;;;;5015577;28;20820;-57
2022/12/22 12:04:54;;;;;;;8.40;8.10;;;21.10;66.40;;;;;;5016206;28;20452;-55
2022/12/22 12:07:27;;;;;;;8.90;8.50;;;21.20;63.90;;;;;;5015713;28;20442;-52
2022/12/22 12:10:04;;;;;;;9.17;8.87;;;21.20;62.10;;;;;;5014876;28;20804;-55
2022/12/22 12:12:41;;;;;;;9.13;8.83;;;21.30;60.90;;;;;;5015653;28;20541;-56
2022/12/22 12:15:19;;;;;;;9.57;9.10;;;21.40;60.10;;;;;;5015425;28;20844;-53
2022/12/22 12:18:03;;;;;;;10.90;10.07;;;21.40;60.30;;;;;;5015625;28;20572;-53
2022/12/22 12:20:44;;;;;;;21.23;10.60;;;21.50;62.60;;;;;;5014662;28;20957;-55
2022/12/22 12:23:27;;;;;;;12.93;10.93;;;21.50;65.00;;;;;;5015194;28;20985;-56
2022/12/22 12:26:01;;;;;;;16.10;12.90;;;21.50;65.20;;;;;;5015297;28;20456;-61
2022/12/22 12:28:38;;;;;;;15.43;13.60;;;21.60;70.40;;;;;;5015650;28;20460;-61
2022/12/22 12:31:07;;;;;;;18.50;13.23;;;21.50;72.10;;;;;;5015159;28;20545;-56
2022/12/22 12:33:43;;;;;;;17.23;13.17;;;21.60;74.20;;;;;;5015614;28;20525;-56
2022/12/22 12:36:19;;;;;;;17.53;12.27;;;21.60;74.40;;;;;;5016219;28;20488;-57
2022/12/22 12:38:55;;;;;;;14.57;13.00;;;21.60;74.90;;;;;;5015471;28;20446;-58
2022/12/22 12:41:30;;;;;;;13.70;12.30;;;21.70;75.90;;;;;;5015272;28;20985;-57
2022/12/22 12:43:58;;;;;;;16.17;12.73;;;21.70;75.80;;;;;;5015128;28;21015;-57
2022/12/22 12:46:45;;;;;;;16.07;12.80;;;21.70;75.70;;;;;;5015223;28;20965;-57
2022/12/22 12:49:44;;;;;;;12.40;11.20;;;21.70;75.70;;;;;;5015258;28;20611;-57
2022/12/22 12:52:13;;;;;;;13.50;12.10;;;21.70;74.90;;;;;;5011089;28;20864;-57
2022/12/22 12:54:40;;;;;;;13.53;12.50;;;21.70;74.10;;;;;;5015055;28;20874;-57
2022/12/22 12:57:26;;;;;;;12.47;11.63;;;21.70;73.40;;;;;;5014664;28;20596;-59
2022/12/22 12:59:54;;;;;;;12.10;11.23;;;21.70;73.50;;;;;;5014725;28;20854;-52
2022/12/22 13:02:37;;;;;;;12.20;11.20;;;21.80;72.50;;;;;;5014744;28;20465;-54
2022/12/22 13:05:27;;;;;;;12.33;11.43;;;21.80;72.30;;;;;;5014753;28;20449;-62
2022/12/22 13:08:29;;;;;;;12.90;11.70;;;21.90;72.60;;;;;;5014872;28;20790;-61
2022/12/22 13:11:33;;;;;;;15.07;10.60;;;21.90;72.10;;;;;;5013565;28;20525;-59
2022/12/22 13:14:00;;;;;;;11.63;10.83;;;22.00;72.00;;;;;;5015082;28;20442;-63
2022/12/22 13:16:36;;;;;;;12.37;11.47;;;22.00;70.60;;;;;;5014766;28;20576;-59
2022/12/22 13:19:10;;;;;;;11.67;10.67;;;22.00;70.20;;;;;;5014682;28;20441;-56
2022/12/22 13:21:41;;;;;;;11.07;10.37;;;22.00;70.40;;;;;;5014439;28;20470;-59
2022/12/22 13:24:19;;;;;;;12.00;10.97;;;22.00;70.00;;;;;;5014590;28;20456;-58
2022/12/22 13:26:48;;;;;;;10.33;9.73;;;22.00;69.60;;;;;;5014630;28;20481;-59
2022/12/22 13:29:23;;;;;;;10.50;9.70;;;22.00;69.60;;;;;;5014377;28;20446;-57
2022/12/22 13:31:54;;;;;;;10.63;9.93;;;22.00;69.00;;;;;;5013676;28;20849;-60
2022/12/22 13:34:46;;;;;;;10.30;9.60;;;22.10;68.70;;;;;;5013534;28;20454;-63
2022/12/22 13:37:20;;;;;;;10.53;10.07;;;22.10;68.20;;;;;;5000603;28;20613;-64
2022/12/22 13:40:11;;;;;;;11.63;10.60;;;22.20;67.50;;;;;;5014550;28;20536;-65
2022/12/22 13:42:40;;;;;;;11.50;10.67;;;22.20;66.70;;;;;;5014694;28;20541;-54
2022/12/22 13:45:27;;;;;;;10.67;9.87;;;22.20;66.70;;;;;;5014293;28;20448;-55
2022/12/22 13:47:55;;;;;;;9.87;9.17;;;22.20;66.50;;;;;;5013892;28;20814;-53
2022/12/22 13:50:24;;;;;;;10.17;9.53;;;22.20;66.40;;;;;;5013253;28;20448;-54
2022/12/22 13:52:52;;;;;;;9.20;8.35;;;22.10;66.30;;;;;;5012889;28;20802;-56
2022/12/22 13:55:25;;;;;;;11.53;10.30;;;22.10;66.00;;;;;;5013756;28;20205;-54
2022/12/22 13:57:53;;;;;;;10.60;9.80;;;22.20;66.80;;;;;;5013539;28;20577;-53
2022/12/22 14:00:22;;;;;;;9.83;9.10;;;22.20;66.40;;;;;;5013464;28;20485;-55
2022/12/22 14:02:49;;;;;;;9.90;9.30;;;22.20;66.40;;;;;;5013241;28;21083;-53
2022/12/22 14:05:16;;;;;;;10.33;9.83;;;22.20;66.60;;;;;;5013391;28;20532;-53
2022/12/22 14:07:58;;;;;;;10.30;9.70;;;22.20;66.70;;;;;;5013039;28;20453;-53
2022/12/22 14:10:33;;;;;;;9.97;9.30;;;22.20;66.40;;;;;;5013122;28;20817;-62
2022/12/22 14:13:05;;;;;;;9.83;9.23;;;22.10;66.40;;;;;;5013289;28;20544;-58
2022/12/22 14:15:32;;;;;;;10.30;9.47;;;22.00;68.00;;;;;;5013033;28;20972;-57
2022/12/22 14:18:00;;;;;;;9.50;9.00;;;22.00;67.30;;;;;;5013372;28;20482;-56
2022/12/22 14:20:31;;;;;;;9.67;9.07;;;22.00;66.40;;;;;;5012935;28;21009;-57
2022/12/22 14:23:02;;;;;;;12.20;11.23;;;22.10;66.50;;;;;;5012198;28;20466;-59
2022/12/22 14:25:34;;;;;;;11.23;10.53;;;22.10;66.60;;;;;;5013110;28;20969;-58
2022/12/22 14:28:02;;;;;;;9.80;9.20;;;22.20;68.10;;;;;;5013128;28;20450;-51
2022/12/22 14:30:34;;;;;;;9.90;9.40;;;22.20;66.50;;;;;;5012465;28;20461;-51
2022/12/22 14:33:17;;;;;;;13.37;12.10;;;22.30;66.20;;;;;;5012768;28;20462;-52
2022/12/22 14:35:43;;;;;;;18.23;12.40;;;22.40;66.00;;;;;;5013099;28;20541;-51
2022/12/22 14:38:19;;;;;;;18.20;12.27;;;22.40;66.40;;;;;;5012631;28;20496;-54
2022/12/22 14:40:47;;;;;;;19.97;15.03;;;22.50;66.80;;;;;;5012453;28;20441;-53
2022/12/22 14:43:25;;;;;;;17.60;14.17;;;22.50;66.80;;;;;;5012881;28;20849;-52
2022/12/22 14:46:00;;;;;;;21.67;14.60;;;22.50;66.90;;;;;;5012676;28;20452;-54
2022/12/22 14:48:31;;;;;;;22.10;16.30;;;22.60;67.50;;;;;;5012918;28;20438;-55
2022/12/22 14:50:58;;;;;;;27.33;18.13;;;22.60;67.50;;;;;;5012327;28;20442;-52
2022/12/22 14:53:28;;;;;;;36.53;22.37;;;22.60;68.40;;;;;;5012073;28;20561;-54
2022/12/22 14:55:56;;;;;;;50.23;30.87;;;22.60;68.00;;;;;;5012272;28;20451;-54
2022/12/22 14:58:29;;;;;;;59.03;28.97;;;22.60;68.30;;;;;;5012196;28;21021;-55
2022/12/22 15:01:18;;;;;;;85.60;40.97;;;22.60;69.70;;;;;;5011993;28;20968;-53
2022/12/22 15:04:00;;;;;;;88.17;49.67;;;22.60;73.50;;;;;;5012618;28;20496;-55
2022/12/22 15:06:41;;;;;;;77.90;44.40;;;22.70;75.40;;;;;;4992670;28;20800;-52
2022/12/22 15:09:26;;;;;;;76.23;40.80;;;22.70;75.40;;;;;;4992324;28;20451;-53
2022/12/22 15:12:01;;;;;;;89.10;43.37;;;22.70;75.80;;;;;;4992350;28;20462;-51
2022/12/22 15:14:32;;;;;;;76.30;38.77;;;22.70;76.30;;;;;;4992690;28;20864;-51
2022/12/22 15:17:01;;;;;;;65.87;38.67;;;22.70;78.40;;;;;;5002902;28;20581;-51
2022/12/22 15:19:30;;;;;;;64.83;38.43;;;22.80;78.50;;;;;;5011875;28;20445;-51
2022/12/22 15:21:57;;;;;;;73.43;36.50;;;22.80;78.60;;;;;;5011982;28;20476;-52
2022/12/22 15:24:24;;;;;;;73.27;36.10;;;22.80;76.70;;;;;;5012245;28;20446;-51
2022/12/22 15:26:51;;;;;;;70.43;34.03;;;22.90;75.70;;;;;;5012208;28;20489;-53
2022/12/22 15:29:19;;;;;;;59.80;31.67;;;22.90;74.40;;;;;;5011782;28;20461;-50
2022/12/22 15:31:46;;;;;;;56.83;32.97;;;22.90;74.70;;;;;;5011813;28;20469;-53
2022/12/22 15:34:19;;;;;;;59.37;32.00;;;22.90;74.30;;;;;;5011091;28;20489;-50
2022/12/22 15:36:45;;;;;;;50.13;29.10;;;22.90;74.70;;;;;;5011701;28;20450;-51
2022/12/22 15:39:15;;;;;;;46.87;28.70;;;23.00;73.60;;;;;;5011534;28;20456;-51
2022/12/22 15:41:42;;;;;;;48.63;28.47;;;23.00;74.30;;;;;;5011699;28;20481;-54
2022/12/22 15:44:09;;;;;;;43.35;27.13;;;23.00;73.30;;;;;;5009014;28;20457;-49
2022/12/22 15:46:40;;;;;;;39.20;26.80;;;23.00;71.40;;;;;;5011078;28;20199;-50
2022/12/22 15:49:13;;;;;;;48.53;28.83;;;23.00;70.20;;;;;;5010298;28;20530;-49
2022/12/22 15:51:40;;;;;;;33.57;24.90;;;23.00;69.80;;;;;;5010448;28;20480;-49
2022/12/22 15:54:11;;;;;;;49.90;27.50;;;23.00;69.40;;;;;;5011571;28;20475;-50
2022/12/22 15:56:38;;;;;;;33.20;23.57;;;22.90;69.30;;;;;;5011627;28;20422;-48
2022/12/22 15:59:05;;;;;;;38.13;24.20;;;22.80;69.20;;;;;;5011355;28;20474;-49
2022/12/22 16:01:32;;;;;;;34.47;23.10;;;22.70;69.20;;;;;;5011372;28;20465;-50
2022/12/22 16:04:00;;;;;;;31.37;22.47;;;22.70;69.30;;;;;;5011455;28;20509;-51
2022/12/22 16:06:28;;;;;;;33.70;22.23;;;22.60;69.10;;;;;;5011513;28;20445;-49
2022/12/22 16:08:55;;;;;;;36.37;22.80;;;22.50;69.10;;;;;;5011597;28;20789;-49
2022/12/22 16:11:22;;;;;;;28.67;21.13;;;22.50;68.90;;;;;;5010892;28;20880;-50
2022/12/22 16:13:50;;;;;;;32.30;22.20;;;22.50;69.00;;;;;;5011477;28;20545;-49
2022/12/22 16:16:17;;;;;;;28.30;19.70;;;22.40;68.90;;;;;;5011498;28;20453;-48
2022/12/22 16:18:44;;;;;;;35.53;23.60;;;22.40;69.00;;;;;;5011187;28;20967;-54
2022/12/22 16:21:16;;;;;;;29.77;19.87;;;22.40;69.00;;;;;;5011254;28;20484;-48
2022/12/22 16:23:46;;;;;;;42.70;24.47;;;22.30;68.90;;;;;;5011118;28;20456;-51
2022/12/22 16:26:16;;;;;;;30.40;21.07;;;22.30;68.80;;;;;;5011320;28;20446;-48
2022/12/22 16:28:43;;;;;;;26.73;21.07;;;22.30;69.00;;;;;;5011338;28;20847;-48
2022/12/22 16:31:17;;;;;;;24.07;19.47;;;22.30;68.90;;;;;;5010839;28;20464;-52
2022/12/22 16:33:44;;;;;;;23.07;18.03;;;22.20;68.70;;;;;;5010976;28;20493;-49
2022/12/22 16:36:11;;;;;;;20.83;18.63;;;22.20;68.80;;;;;;5011428;28;20444;-49
2022/12/22 16:38:40;;;;;;;20.73;18.10;;;22.20;68.80;;;;;;5011104;28;20576;-53
2022/12/22 16:41:15;;;;;;;23.33;18.33;;;22.10;68.80;;;;;;5010805;28;20449;-51